Time;durP1;ratioP1;P1;durP2;ratioP2;P2;SDS_P1;SDS_P2;PMS_P1;PMS_P2;Temp;Humidity;BMP_temperature;BMP_pressure;BME280_temperature;BME280_humidity;BME280_pressure;Samples;Min_cycle;Max_cycle;Signal;HPM_P1;HPM_P2
2022/07/27 00:02:08;;;;;;;4.63;1.77;;;14.90;99.90;;;;;;5068213;28;20497;-86
2022/07/27 00:04:33;;;;;;;5.50;1.97;;;14.80;99.90;;;;;;5078191;28;20380;-86
2022/07/27 00:06:59;;;;;;;5.13;1.60;;;14.70;99.90;;;;;;5101119;28;20386;-86
2022/07/27 00:09:24;;;;;;;6.60;1.90;;;14.60;99.90;;;;;;5070527;28;20392;-86
2022/07/27 00:11:50;;;;;;;3.10;1.63;;;14.50;99.90;;;;;;5084929;28;20872;-86
2022/07/27 00:14:18;;;;;;;7.30;1.88;;;14.50;99.90;;;;;;5085306;28;20952;-85
2022/07/27 00:16:44;;;;;;;5.13;1.83;;;14.40;99.90;;;;;;5068305;28;20782;-86
2022/07/27 00:19:10;;;;;;;6.03;1.63;;;14.30;99.90;;;;;;5067849;28;20398;-86
2022/07/27 00:21:36;;;;;;;5.83;1.80;;;14.20;99.90;;;;;;5069785;28;20378;-87
2022/07/27 00:24:01;;;;;;;4.53;1.60;;;14.20;99.90;;;;;;5069618;28;20382;-87
2022/07/27 00:26:27;;;;;;;7.40;2.10;;;14.10;99.90;;;;;;5070808;28;20378;-87
2022/07/27 00:28:53;;;;;;;5.93;2.20;;;14.00;99.90;;;;;;5100602;28;20925;-86
2022/07/27 00:31:18;;;;;;;4.82;1.85;;;13.90;99.90;;;;;;5066579;28;20380;-86
2022/07/27 00:33:44;;;;;;;6.72;2.10;;;13.80;99.90;;;;;;5067515;28;20440;-86
2022/07/27 00:36:10;;;;;;;6.10;2.20;;;13.70;99.90;;;;;;5068414;28;20382;-85
2022/07/27 00:38:36;;;;;;;3.87;1.70;;;13.60;99.90;;;;;;5069756;28;20388;-86
2022/07/27 00:41:02;;;;;;;7.97;2.00;;;13.50;99.90;;;;;;5101611;28;20389;-85
2022/07/27 00:43:27;;;;;;;5.18;1.92;;;13.50;99.90;;;;;;5069446;28;20431;-86
2022/07/27 00:45:53;;;;;;;3.80;1.63;;;13.40;99.90;;;;;;5067703;28;20406;-86
2022/07/27 00:48:19;;;;;;;5.53;1.97;;;13.40;99.90;;;;;;5066869;28;20378;-87
2022/07/27 00:50:46;;;;;;;7.10;2.20;;;13.30;99.90;;;;;;5068641;28;20366;-87
2022/07/27 00:53:13;;;;;;;5.55;1.85;;;13.30;99.90;;;;;;5066629;28;20383;-85
2022/07/27 00:55:39;;;;;;;4.65;1.98;;;13.20;99.90;;;;;;5068174;28;20377;-86
2022/07/27 00:58:10;;;;;;;4.68;2.00;;;13.20;99.90;;;;;;5067705;28;20378;-86
2022/07/27 01:00:36;;;;;;;4.75;2.30;;;13.20;99.90;;;;;;5068155;28;20906;-85
2022/07/27 01:03:03;;;;;;;6.32;2.47;;;13.00;99.90;;;;;;5072275;28;20497;-85
2022/07/27 01:05:28;;;;;;;5.63;1.42;;;13.00;99.90;;;;;;5072350;28;20369;-85
2022/07/27 01:07:54;;;;;;;7.10;2.20;;;13.00;99.90;;;;;;5071284;28;20386;-85
2022/07/27 01:10:20;;;;;;;7.00;2.17;;;12.90;99.90;;;;;;5072193;28;20374;-86
2022/07/27 01:12:46;;;;;;;5.23;1.90;;;12.90;99.90;;;;;;5072679;28;20467;-86
2022/07/27 01:15:12;;;;;;;4.97;1.77;;;12.90;99.90;;;;;;5071684;28;20378;-86
2022/07/27 01:17:38;;;;;;;6.03;1.88;;;12.80;99.90;;;;;;5067777;28;20397;-86
2022/07/27 01:20:05;;;;;;;5.82;2.00;;;12.80;99.90;;;;;;5071658;28;20891;-86
2022/07/27 01:22:30;;;;;;;5.22;1.83;;;12.80;99.90;;;;;;5070224;28;20389;-86
2022/07/27 01:24:56;;;;;;;6.70;2.30;;;12.80;99.90;;;;;;5070214;28;21278;-86
2022/07/27 01:27:22;;;;;;;4.30;1.98;;;12.80;99.90;;;;;;5067537;28;20421;-86
2022/07/27 01:29:48;;;;;;;5.18;1.80;;;12.80;99.90;;;;;;5069604;28;20501;-86
2022/07/27 01:32:14;;;;;;;5.00;1.60;;;12.70;99.90;;;;;;5069824;28;20377;-86
2022/07/27 01:34:40;;;;;;;4.85;1.85;;;12.70;99.90;;;;;;5069605;28;20404;-86
2022/07/27 01:37:05;;;;;;;5.00;1.80;;;12.60;99.90;;;;;;5071408;28;20370;-86
2022/07/27 01:39:32;;;;;;;5.43;1.80;;;12.50;99.90;;;;;;5070776;28;20424;-86
2022/07/27 01:41:58;;;;;;;6.15;2.25;;;12.40;99.90;;;;;;5069917;28;20875;-86
2022/07/27 01:44:24;;;;;;;4.72;2.13;;;12.40;99.90;;;;;;5070562;28;20610;-86
2022/07/27 01:46:50;;;;;;;6.85;2.05;;;12.40;99.90;;;;;;5069829;28;20473;-86
2022/07/27 01:49:16;;;;;;;5.93;1.67;;;12.30;99.90;;;;;;5070968;28;20445;-86
2022/07/27 01:51:42;;;;;;;4.57;1.95;;;12.30;99.90;;;;;;5070772;28;20366;-85
2022/07/27 01:54:08;;;;;;;4.65;1.80;;;12.30;99.90;;;;;;5069582;28;20374;-85
2022/07/27 01:56:34;;;;;;;4.35;1.83;;;12.20;99.90;;;;;;5069518;28;20393;-86
2022/07/27 01:59:00;;;;;;;5.00;2.05;;;12.10;99.90;;;;;;5103473;28;20884;-86
2022/07/27 02:01:25;;;;;;;4.32;1.90;;;12.00;99.90;;;;;;5070424;28;20374;-86
2022/07/27 02:03:51;;;;;;;5.37;2.20;;;11.90;99.90;;;;;;5069046;28;20873;-85
2022/07/27 02:06:17;;;;;;;6.43;1.92;;;11.90;99.90;;;;;;5102953;28;20382;-86
2022/07/27 02:08:42;;;;;;;5.53;2.20;;;11.90;99.90;;;;;;5069527;28;20383;-86
2022/07/27 02:13:52;;;;;;;4.27;2.07;;;11.80;99.90;;;;;;5069091;28;20461;-86
2022/07/27 02:16:18;;;;;;;5.23;2.30;;;11.70;99.90;;;;;;5068791;28;20465;-85
2022/07/27 02:18:45;;;;;;;4.43;2.20;;;11.70;99.90;;;;;;5068506;28;20473;-85
2022/07/27 02:21:12;;;;;;;6.28;2.22;;;11.60;99.90;;;;;;5069128;28;20381;-84
2022/07/27 02:23:38;;;;;;;3.97;1.98;;;11.60;99.90;;;;;;5068857;28;20370;-85
2022/07/27 02:26:05;;;;;;;6.63;2.45;;;11.50;99.90;;;;;;5069136;28;20374;-85
2022/07/27 02:28:31;;;;;;;6.07;2.35;;;11.40;99.90;;;;;;5068687;28;20378;-85
2022/07/27 02:30:57;;;;;;;6.30;1.90;;;11.30;99.90;;;;;;5068712;28;20802;-86
2022/07/27 02:33:23;;;;;;;3.92;2.30;;;11.30;99.90;;;;;;5070164;28;20370;-85
2022/07/27 02:35:48;;;;;;;7.00;2.47;;;11.30;99.90;;;;;;5068947;28;20477;-86
2022/07/27 02:38:14;;;;;;;6.17;2.33;;;11.30;99.90;;;;;;5069075;28;20390;-85
2022/07/27 02:40:40;;;;;;;5.00;1.93;;;11.30;99.90;;;;;;5068652;28;20547;-85
2022/07/27 02:43:05;;;;;;;4.15;2.00;;;11.30;99.90;;;;;;5069474;28;20402;-86
2022/07/27 02:45:31;;;;;;;4.47;1.83;;;11.30;99.90;;;;;;5068547;28;20426;-86
2022/07/27 02:47:56;;;;;;;3.72;2.00;;;11.30;99.90;;;;;;5068948;28;20942;-86
2022/07/27 02:50:22;;;;;;;6.30;2.47;;;11.30;99.90;;;;;;5066378;28;20385;-86
2022/07/27 02:52:48;;;;;;;5.00;2.70;;;11.20;99.90;;;;;;5068316;28;20752;-85
2022/07/27 02:55:13;;;;;;;6.45;2.30;;;11.20;99.90;;;;;;5068579;28;20469;-86
2022/07/27 02:57:39;;;;;;;5.00;2.33;;;11.10;99.90;;;;;;5068079;28;20390;-86
2022/07/27 03:00:08;;;;;;;4.20;1.83;;;11.10;99.90;;;;;;5068627;28;20523;-85
2022/07/27 03:02:34;;;;;;;5.23;2.00;;;11.10;99.90;;;;;;5069645;28;20814;-86
2022/07/27 03:04:59;;;;;;;6.17;2.30;;;11.10;99.90;;;;;;5068167;28;20872;-85
2022/07/27 03:07:25;;;;;;;4.40;2.25;;;11.10;99.90;;;;;;5068457;28;20393;-85
2022/07/27 03:09:51;;;;;;;7.53;3.00;;;11.10;99.90;;;;;;5068603;28;20378;-85
2022/07/27 03:12:16;;;;;;;5.83;2.27;;;11.10;99.90;;;;;;5068172;28;20382;-85
2022/07/27 03:14:42;;;;;;;4.78;2.30;;;11.10;99.90;;;;;;5068977;28;20416;-85
2022/07/27 03:17:07;;;;;;;5.47;2.50;;;11.10;99.90;;;;;;5070655;28;20728;-85
2022/07/27 03:19:33;;;;;;;4.63;2.20;;;11.10;99.90;;;;;;5068669;28;20524;-85
2022/07/27 03:21:59;;;;;;;3.97;1.88;;;11.20;99.90;;;;;;5070293;28;20457;-85
2022/07/27 03:24:24;;;;;;;5.43;1.90;;;11.20;99.90;;;;;;5069055;28;20375;-85
2022/07/27 03:26:50;;;;;;;4.30;2.03;;;11.20;99.90;;;;;;5068198;28;20370;-85
2022/07/27 03:29:15;;;;;;;5.40;1.95;;;11.30;99.90;;;;;;5068098;28;20370;-85
2022/07/27 03:31:43;;;;;;;4.53;2.33;;;11.20;99.90;;;;;;5067614;28;20378;-84
2022/07/27 03:34:08;;;;;;;3.67;2.00;;;11.20;99.90;;;;;;5051557;28;20492;-85
2022/07/27 03:36:35;;;;;;;6.77;2.33;;;11.30;99.90;;;;;;5067721;28;20545;-85
2022/07/27 03:39:01;;;;;;;5.53;2.65;;;11.30;99.90;;;;;;5067368;28;20410;-87
2022/07/27 03:41:27;;;;;;;5.20;2.50;;;11.30;99.90;;;;;;5064952;28;20897;-86
2022/07/27 03:43:52;;;;;;;4.63;2.03;;;11.30;99.90;;;;;;5067651;28;20995;-85
2022/07/27 03:46:18;;;;;;;5.13;2.10;;;11.30;99.90;;;;;;5067223;28;20934;-86
2022/07/27 03:48:43;;;;;;;5.57;2.35;;;11.40;99.90;;;;;;5067406;28;20464;-85
2022/07/27 03:51:09;;;;;;;4.10;2.00;;;11.40;99.90;;;;;;5067549;28;20389;-86
2022/07/27 03:53:35;;;;;;;4.32;1.90;;;11.40;99.90;;;;;;5101287;28;20381;-85
2022/07/27 03:56:00;;;;;;;5.05;2.25;;;11.50;99.90;;;;;;5067205;28;20386;-85
2022/07/27 03:58:26;;;;;;;4.63;2.17;;;11.60;99.90;;;;;;5064711;28;20381;-85
2022/07/27 04:00:52;;;;;;;4.40;1.98;;;11.60;99.90;;;;;;5067242;28;20821;-85
2022/07/27 04:03:17;;;;;;;4.17;2.23;;;11.60;99.90;;;;;;5067167;28;20469;-85
2022/07/27 04:05:43;;;;;;;5.73;2.07;;;11.70;99.90;;;;;;5067033;28;20794;-85
2022/07/27 04:08:09;;;;;;;4.57;2.30;;;11.80;99.90;;;;;;5067207;28;20385;-86
2022/07/27 04:10:34;;;;;;;6.75;2.13;;;11.80;99.90;;;;;;5068346;28;20777;-86
2022/07/27 04:13:00;;;;;;;6.73;2.20;;;11.90;99.90;;;;;;5067210;28;20791;-86
2022/07/27 04:15:26;;;;;;;5.30;2.20;;;12.00;99.90;;;;;;5068559;28;20404;-85
2022/07/27 04:17:52;;;;;;;4.47;2.00;;;12.10;99.90;;;;;;5068688;28;20370;-86
2022/07/27 04:20:18;;;;;;;4.30;1.85;;;12.20;99.90;;;;;;5100602;28;20498;-85
2022/07/27 04:22:44;;;;;;;7.60;2.28;;;12.30;99.90;;;;;;5066860;28;20761;-85
2022/07/27 04:25:10;;;;;;;4.80;2.03;;;12.40;99.90;;;;;;5066764;28;20385;-85
2022/07/27 04:27:36;;;;;;;4.00;1.90;;;12.60;99.90;;;;;;5100812;28;20909;-85
2022/07/27 04:30:05;;;;;;;4.15;1.98;;;12.70;99.90;;;;;;5066937;28;20425;-85
2022/07/27 04:32:31;;;;;;;3.90;1.92;;;12.80;99.90;;;;;;5067054;28;20374;-85
2022/07/27 04:34:56;;;;;;;4.97;1.93;;;12.80;99.90;;;;;;5066840;28;20903;-85
2022/07/27 04:37:22;;;;;;;4.60;2.00;;;12.80;99.90;;;;;;5068086;28;20389;-85
2022/07/27 04:39:47;;;;;;;5.68;2.10;;;12.90;99.90;;;;;;5066443;28;20402;-85
2022/07/27 04:42:13;;;;;;;4.83;2.10;;;12.90;99.90;;;;;;5066782;28;20851;-85
2022/07/27 04:44:39;;;;;;;4.70;2.13;;;12.90;99.90;;;;;;5068159;28;20377;-84
2022/07/27 04:47:05;;;;;;;5.87;2.10;;;12.90;99.90;;;;;;5067088;28;20398;-86
2022/07/27 04:49:30;;;;;;;3.90;1.83;;;12.90;99.90;;;;;;5067190;28;20859;-85
2022/07/27 04:51:56;;;;;;;5.57;2.00;;;13.10;99.90;;;;;;5068334;28;20370;-85
2022/07/27 04:54:22;;;;;;;4.82;1.95;;;13.30;99.90;;;;;;5104981;28;20379;-84
2022/07/27 04:56:47;;;;;;;7.10;2.30;;;13.50;99.90;;;;;;5071676;28;20875;-84
2022/07/27 04:59:13;;;;;;;6.38;1.90;;;13.40;99.90;;;;;;5069172;28;20810;-85
2022/07/27 05:01:39;;;;;;;5.17;2.10;;;13.40;99.90;;;;;;5069713;28;20859;-86
2022/07/27 05:04:04;;;;;;;5.13;2.00;;;13.50;99.90;;;;;;5068877;28;20378;-85
2022/07/27 05:06:31;;;;;;;6.72;2.40;;;13.60;99.90;;;;;;5068659;28;20845;-84
2022/07/27 05:08:58;;;;;;;4.45;1.95;;;13.60;99.90;;;;;;5067761;28;20879;-86
2022/07/27 05:11:23;;;;;;;5.45;2.00;;;13.70;99.90;;;;;;5069129;28;21191;-86
2022/07/27 05:13:49;;;;;;;5.33;2.03;;;13.90;99.90;;;;;;5067028;28;20370;-85
2022/07/27 05:16:14;;;;;;;4.32;2.10;;;14.00;99.90;;;;;;5068742;28;20370;-86
2022/07/27 05:18:40;;;;;;;3.83;1.83;;;14.10;99.90;;;;;;5068790;28;20470;-84
2022/07/27 05:21:07;;;;;;;7.23;2.43;;;14.10;99.90;;;;;;5068669;28;20374;-85
2022/07/27 05:23:33;;;;;;;6.50;2.33;;;14.10;99.90;;;;;;5067334;28;20382;-86
2022/07/27 05:25:59;;;;;;;5.10;2.10;;;14.10;99.90;;;;;;5066832;28;20398;-86
2022/07/27 05:28:25;;;;;;;6.03;1.98;;;14.10;99.90;;;;;;5067041;28;20930;-86
2022/07/27 05:30:50;;;;;;;7.47;2.17;;;14.20;99.90;;;;;;5067059;28;20891;-87
2022/07/27 05:33:16;;;;;;;5.15;1.98;;;14.40;99.90;;;;;;5067472;28;20469;-85
2022/07/27 05:35:42;;;;;;;5.97;2.08;;;14.60;99.90;;;;;;5069049;28;20394;-85
2022/07/27 05:38:08;;;;;;;4.67;2.10;;;14.80;99.90;;;;;;5069223;28;20370;-87
2022/07/27 05:40:33;;;;;;;6.43;2.00;;;14.80;99.90;;;;;;5066866;28;20410;-86
2022/07/27 05:42:59;;;;;;;7.95;2.30;;;15.00;99.90;;;;;;5066967;28;20370;-85
2022/07/27 05:45:25;;;;;;;5.45;1.90;;;15.10;99.90;;;;;;5101591;28;20389;-86
2022/07/27 05:47:53;;;;;;;5.97;1.95;;;15.30;99.90;;;;;;5069852;28;20748;-84
2022/07/27 05:50:19;;;;;;;6.40;2.10;;;15.50;99.90;;;;;;5072115;28;20428;-85
2022/07/27 05:52:44;;;;;;;5.55;1.92;;;15.60;99.90;;;;;;5072003;28;20382;-86
2022/07/27 05:55:10;;;;;;;5.13;2.08;;;15.70;99.90;;;;;;5071912;28;20378;-84
2022/07/27 05:57:37;;;;;;;5.20;1.90;;;15.70;99.90;;;;;;5070540;28;20378;-87
2022/07/27 06:00:05;;;;;;;6.25;2.05;;;15.80;99.90;;;;;;5071982;28;20398;-86
2022/07/27 06:02:30;;;;;;;5.05;2.25;;;15.90;99.90;;;;;;5070534;28;20453;-86
2022/07/27 06:04:56;;;;;;;7.60;2.20;;;16.00;99.90;;;;;;5071015;28;20473;-86
2022/07/27 06:10:07;;;;;;;6.93;1.88;;;16.20;99.90;;;;;;5072864;28;20866;-84
2022/07/27 06:12:37;;;;;;;7.63;2.00;;;16.30;99.90;;;;;;5070582;28;20386;-85
2022/07/27 06:15:05;;;;;;;7.03;2.17;;;16.40;99.90;;;;;;5072131;28;20374;-84
2022/07/27 06:17:31;;;;;;;6.68;2.50;;;16.80;99.90;;;;;;5072019;28;20386;-85
2022/07/27 06:19:56;;;;;;;6.83;2.13;;;17.10;99.90;;;;;;5070791;28;20492;-85
2022/07/27 06:22:22;;;;;;;5.13;1.92;;;17.30;99.90;;;;;;5070781;28;20439;-88
2022/07/27 06:24:48;;;;;;;3.63;1.57;;;17.40;99.90;;;;;;5069932;28;20378;-85
2022/07/27 06:27:13;;;;;;;7.82;2.50;;;17.50;99.90;;;;;;5071707;28;20807;-85
2022/07/27 06:29:39;;;;;;;6.45;2.22;;;17.60;99.90;;;;;;5070407;28;20914;-86
2022/07/27 06:32:05;;;;;;;4.07;1.90;;;17.80;99.90;;;;;;5069842;28;20418;-86
2022/07/27 06:34:31;;;;;;;6.43;2.10;;;17.80;99.90;;;;;;5071435;28;20917;-86
2022/07/27 06:36:59;;;;;;;7.07;1.87;;;17.90;99.90;;;;;;5068628;28;20957;-84
2022/07/27 06:39:25;;;;;;;5.35;1.80;;;18.10;99.90;;;;;;5069972;28;20417;-85
2022/07/27 06:41:50;;;;;;;9.48;2.00;;;18.40;99.90;;;;;;5070514;28;20375;-87
2022/07/27 06:44:16;;;;;;;6.13;1.85;;;18.30;99.90;;;;;;5070042;28;20389;-85
2022/07/27 06:46:42;;;;;;;6.23;1.90;;;18.20;99.90;;;;;;5070274;28;20382;-85
2022/07/27 06:49:07;;;;;;;6.35;2.33;;;18.40;99.90;;;;;;5070883;28;20748;-87
2022/07/27 06:51:33;;;;;;;4.47;2.03;;;18.70;99.90;;;;;;5069692;28;20390;-84
2022/07/27 06:53:59;;;;;;;7.20;1.98;;;19.10;99.90;;;;;;5071113;28;20385;-86
2022/07/27 06:56:24;;;;;;;5.40;1.47;;;19.50;99.90;;;;;;5069336;28;20389;-86
2022/07/27 06:58:50;;;;;;;5.80;1.90;;;19.70;99.90;;;;;;5069498;28;20394;-85
2022/07/27 07:01:16;;;;;;;7.77;1.60;;;20.00;99.90;;;;;;5070714;28;20378;-84
2022/07/27 07:03:42;;;;;;;5.63;1.43;;;20.20;99.90;;;;;;5069568;28;20370;-85
2022/07/27 07:06:08;;;;;;;5.75;1.55;;;20.20;99.90;;;;;;5070550;28;20565;-88
2022/07/27 07:08:34;;;;;;;5.20;1.48;;;20.10;99.90;;;;;;5070157;28;20382;-87
2022/07/27 07:11:01;;;;;;;6.90;1.60;;;19.80;99.90;;;;;;5066530;28;20408;-86
2022/07/27 07:13:27;;;;;;;11.10;1.73;;;19.90;99.90;;;;;;5089857;28;20465;-84
2022/07/27 07:15:53;;;;;;;5.40;1.40;;;20.20;99.90;;;;;;5069180;28;20441;-85
2022/07/27 07:18:18;;;;;;;3.47;1.40;;;20.60;99.90;;;;;;5071001;28;20386;-87
2022/07/27 07:20:44;;;;;;;4.10;1.60;;;20.30;99.90;;;;;;5069305;28;20464;-87
2022/07/27 07:23:10;;;;;;;5.15;1.80;;;20.10;99.90;;;;;;5068183;28;20481;-86
2022/07/27 07:25:37;;;;;;;5.75;1.50;;;19.90;99.90;;;;;;5068084;28;20409;-85
2022/07/27 07:28:03;;;;;;;4.65;1.77;;;19.70;99.90;;;;;;5069408;28;20386;-85
2022/07/27 07:30:30;;;;;;;7.03;1.45;;;19.50;99.90;;;;;;5070052;28;20382;-86
2022/07/27 07:32:56;;;;;;;5.30;1.40;;;19.20;99.90;;;;;;5068886;28;20379;-88
2022/07/27 07:35:22;;;;;;;5.30;1.50;;;19.10;99.90;;;;;;5069045;28;20907;-84
2022/07/27 07:37:48;;;;;;;5.72;1.83;;;19.00;99.90;;;;;;5070590;28;20396;-84
2022/07/27 07:40:14;;;;;;;6.40;1.77;;;18.90;99.90;;;;;;5068997;28;20764;-87
2022/07/27 07:42:54;;;;;;;4.83;1.50;;;19.00;99.90;;;;;;5070637;28;20461;-85
2022/07/27 07:45:21;;;;;;;5.60;1.55;;;19.10;99.90;;;;;;5071132;28;20386;-87
2022/07/27 07:47:47;;;;;;;4.90;1.70;;;19.00;99.90;;;;;;5069300;28;20452;-85
2022/07/27 07:50:13;;;;;;;7.22;1.90;;;19.20;99.90;;;;;;5068411;28;20854;-86
2022/07/27 07:52:38;;;;;;;3.40;1.30;;;19.60;99.90;;;;;;5068744;28;20975;-84
2022/07/27 07:55:05;;;;;;;5.60;1.45;;;19.90;99.90;;;;;;5069989;28;20509;-87
2022/07/27 07:57:31;;;;;;;5.38;1.63;;;20.10;99.90;;;;;;5068617;28;20911;-84
2022/07/27 07:59:56;;;;;;;2.83;1.23;;;20.10;99.90;;;;;;5068951;28;20405;-87
2022/07/27 08:02:22;;;;;;;5.37;1.40;;;20.00;99.90;;;;;;5069217;28;20389;-85
2022/07/27 08:04:47;;;;;;;3.97;1.42;;;20.00;99.90;;;;;;5070724;28;20374;-85
2022/07/27 08:07:13;;;;;;;4.40;1.40;;;19.80;99.90;;;;;;5068216;28;20757;-88
2022/07/27 08:09:39;;;;;;;5.70;1.40;;;19.70;99.90;;;;;;5067507;28;20452;-84
2022/07/27 08:12:05;;;;;;;6.40;1.80;;;19.80;99.90;;;;;;5068280;28;20880;-86
2022/07/27 08:14:32;;;;;;;4.88;1.45;;;19.70;99.90;;;;;;5068622;28;20887;-86
2022/07/27 08:16:58;;;;;;;4.20;1.20;;;19.80;99.90;;;;;;5063499;28;22096;-86
2022/07/27 08:19:23;;;;;;;3.85;1.38;;;20.20;99.90;;;;;;5068737;28;20406;-85
2022/07/27 08:21:49;;;;;;;4.73;1.40;;;20.60;99.90;;;;;;5069415;28;20511;-87
2022/07/27 08:24:15;;;;;;;2.45;1.40;;;20.80;99.90;;;;;;5067987;28;20476;-88
2022/07/27 08:26:40;;;;;;;3.17;1.30;;;21.00;98.60;;;;;;5101416;28;20477;-85
2022/07/27 08:29:06;;;;;;;4.63;1.30;;;20.90;98.20;;;;;;5068210;28;20366;-87
2022/07/27 08:31:34;;;;;;;3.17;1.35;;;20.90;98.20;;;;;;5070966;28;20382;-84
2022/07/27 08:34:00;;;;;;;5.82;1.80;;;20.80;97.30;;;;;;5108281;28;20878;-85
2022/07/27 08:36:27;;;;;;;3.47;1.50;;;20.50;98.10;;;;;;5070642;28;20401;-87
2022/07/27 08:38:53;;;;;;;4.45;1.48;;;20.20;99.90;;;;;;5067432;28;20413;-86
2022/07/27 08:41:23;;;;;;;6.50;1.90;;;20.10;99.70;;;;;;5067951;28;20369;-85
2022/07/27 08:43:49;;;;;;;2.83;1.10;;;20.10;99.90;;;;;;5069911;28;20374;-85
2022/07/27 08:46:17;;;;;;;4.13;1.50;;;20.00;99.90;;;;;;5068620;28;20884;-85
2022/07/27 08:48:43;;;;;;;2.80;1.57;;;20.00;99.90;;;;;;5067272;28;20465;-85
2022/07/27 08:51:10;;;;;;;3.33;1.30;;;20.10;99.90;;;;;;5068362;28;20374;-83
2022/07/27 08:53:36;;;;;;;2.75;1.25;;;20.10;99.90;;;;;;5067907;28;20402;-84
2022/07/27 08:56:02;;;;;;;5.32;1.40;;;20.10;99.90;;;;;;5069451;28;20887;-84
2022/07/27 08:58:28;;;;;;;3.23;1.40;;;20.30;99.60;;;;;;5068961;28;20469;-86
2022/07/27 09:00:54;;;;;;;4.72;1.60;;;20.40;99.90;;;;;;5069645;28;20423;-86
2022/07/27 09:03:21;;;;;;;4.85;1.58;;;20.60;99.90;;;;;;5069748;28;20458;-87
2022/07/27 09:05:53;;;;;;;3.95;1.60;;;20.90;99.90;;;;;;5069817;28;20385;-85
2022/07/27 09:08:24;;;;;;;6.32;1.48;;;21.20;99.90;;;;;;5069139;28;20445;-87
2022/07/27 09:10:53;;;;;;;5.82;1.33;;;21.70;99.90;;;;;;5068005;28;20462;-85
2022/07/27 09:13:27;;;;;;;4.95;1.70;;;22.20;98.10;;;;;;5068558;28;20390;-86
2022/07/27 09:15:57;;;;;;;3.58;1.30;;;22.60;96.40;;;;;;5068419;28;20377;-88
2022/07/27 09:18:25;;;;;;;4.85;1.40;;;21.90;95.70;;;;;;5070175;28;20378;-85
2022/07/27 09:21:22;;;;;;;6.43;1.60;;;21.50;96.30;;;;;;5068548;28;20398;-87
2022/07/27 09:24:08;;;;;;;5.35;1.60;;;21.40;98.30;;;;;;5077736;28;20405;-82
2022/07/27 09:26:36;;;;;;;3.88;1.33;;;21.50;97.50;;;;;;5067157;28;20443;-85
2022/07/27 09:29:13;;;;;;;5.05;1.20;;;21.50;96.90;;;;;;5071032;28;20475;-86
2022/07/27 09:31:43;;;;;;;5.18;1.60;;;21.30;97.60;;;;;;5070345;28;20418;-87
2022/07/27 09:34:10;;;;;;;3.03;1.20;;;21.20;96.80;;;;;;5071210;28;20397;-84
2022/07/27 09:37:02;;;;;;;4.13;1.35;;;21.10;98.10;;;;;;5071181;28;20394;-85
2022/07/27 09:39:28;;;;;;;4.28;1.60;;;21.30;98.70;;;;;;5065312;28;20891;-86
2022/07/27 09:41:58;;;;;;;4.38;1.40;;;21.50;97.50;;;;;;5071695;28;20385;-85
2022/07/27 09:44:39;;;;;;;5.57;1.70;;;21.40;97.40;;;;;;5076321;28;20378;-87
2022/07/27 09:47:25;;;;;;;6.15;1.40;;;21.30;98.00;;;;;;5073997;28;20757;-87
2022/07/27 09:49:52;;;;;;;5.82;1.42;;;21.20;96.90;;;;;;5071962;28;20907;-83
2022/07/27 09:52:36;;;;;;;6.22;1.65;;;20.90;97.10;;;;;;5076568;28;20401;-87
2022/07/27 09:55:06;;;;;;;4.40;1.40;;;20.90;98.60;;;;;;5080781;28;20386;-86
2022/07/27 09:57:51;;;;;;;5.50;1.88;;;21.30;98.10;;;;;;5073306;28;20378;-88
2022/07/27 10:00:17;;;;;;;4.95;1.55;;;21.50;99.90;;;;;;5071718;28;20409;-87
2022/07/27 10:02:43;;;;;;;5.60;1.55;;;22.10;98.50;;;;;;5071512;28;20370;-87
2022/07/27 10:05:09;;;;;;;5.45;1.60;;;22.30;97.80;;;;;;5071799;28;20702;-88
2022/07/27 10:07:35;;;;;;;4.53;1.50;;;22.30;97.30;;;;;;5070610;28;20389;-86
2022/07/27 10:10:04;;;;;;;5.47;1.33;;;22.30;97.80;;;;;;5070916;28;20386;-87
2022/07/27 10:12:30;;;;;;;5.18;1.55;;;22.10;97.10;;;;;;5069988;28;20382;-85
2022/07/27 10:14:56;;;;;;;5.88;1.95;;;21.80;96.80;;;;;;5070377;28;20386;-85
2022/07/27 10:17:23;;;;;;;5.93;1.58;;;21.50;97.30;;;;;;5069815;28;20441;-86
2022/07/27 10:19:51;;;;;;;4.65;1.42;;;21.20;97.40;;;;;;5069932;28;20460;-87
2022/07/27 10:22:57;;;;;;;5.57;1.80;;;21.10;97.40;;;;;;5071925;28;20381;-87
2022/07/27 10:25:25;;;;;;;6.43;1.65;;;20.90;98.20;;;;;;5070272;28;20717;-85
2022/07/27 10:28:11;;;;;;;4.85;1.50;;;21.00;98.40;;;;;;5071214;28;20388;-86
2022/07/27 10:30:37;;;;;;;4.22;1.52;;;21.10;97.80;;;;;;5069833;28;20386;-86
2022/07/27 10:33:39;;;;;;;4.80;1.65;;;21.40;97.20;;;;;;5069005;28;20383;-87
2022/07/27 10:36:22;;;;;;;4.40;1.43;;;21.80;95.50;;;;;;5066706;28;20382;-87
2022/07/27 10:38:55;;;;;;;5.10;1.60;;;21.90;96.20;;;;;;5066651;28;20406;-87
2022/07/27 10:41:26;;;;;;;4.13;1.42;;;22.50;95.00;;;;;;5068962;28;20390;-84
2022/07/27 10:44:13;;;;;;;4.07;1.45;;;22.60;95.30;;;;;;5070164;28;20377;-84
2022/07/27 10:46:54;;;;;;;3.53;1.35;;;22.50;95.10;;;;;;5068549;28;20478;-87
2022/07/27 10:49:20;;;;;;;4.30;1.42;;;22.30;93.50;;;;;;5069588;28;20847;-86
2022/07/27 10:51:46;;;;;;;6.55;1.60;;;22.20;94.30;;;;;;5067622;28;20945;-85
2022/07/27 10:54:25;;;;;;;5.65;1.55;;;22.30;94.80;;;;;;5068772;28;20394;-87
2022/07/27 10:56:52;;;;;;;4.30;1.27;;;;;;;;;;5067605;28;20478;-87
2022/07/27 10:59:48;;;;;;;5.55;1.60;;;22.80;93.80;;;;;;5069309;28;20398;-89
2022/07/27 11:02:19;;;;;;;4.47;1.40;;;;;;;;;;5069545;28;20469;-87
2022/07/27 11:04:52;;;;;;;2.88;1.20;;;;;;;;;;5068708;28;20399;-84
2022/07/27 11:07:20;;;;;;;5.33;1.87;;;;;;;;;;5068674;28;20392;-86
2022/07/27 11:09:47;;;;;;;4.53;1.60;;;;;;;;;;5068366;28;20394;-87
2022/07/27 11:12:14;;;;;;;3.80;1.33;;;;;;;;;;5068085;28;20389;-86
2022/07/27 11:14:58;;;;;;;3.10;1.45;;;;;;;;;;5069733;28;21400;-88
2022/07/27 11:17:25;;;;;;;5.53;1.60;;;;;;;;;;5071306;28;20374;-86
2022/07/27 11:19:56;;;;;;;3.33;1.30;;;23.00;93.80;;;;;;5068025;28;21322;-85
2022/07/27 11:28:43;;;;;;;4.72;1.40;;;23.30;92.60;;;;;;5511777;22;20938;-85
2022/07/27 11:31:12;;;;;;;8.85;1.67;;;23.10;91.00;;;;;;5035047;28;20538;-85
2022/07/27 11:33:49;;;;;;;7.13;2.03;;;22.80;92.80;;;;;;5027661;28;20435;-84
2022/07/27 11:36:15;;;;;;;3.77;1.30;;;22.70;92.60;;;;;;5039767;28;20395;-86
2022/07/27 11:38:47;;;;;;;5.57;1.40;;;22.70;92.40;;;;;;5037949;28;20384;-86
2022/07/27 11:41:24;;;;;;;4.63;1.40;;;22.70;92.60;;;;;;5032987;28;20412;-86
2022/07/27 11:43:51;;;;;;;3.13;1.30;;;22.50;91.90;;;;;;5034216;28;20926;-85
2022/07/27 11:46:24;;;;;;;3.08;1.30;;;22.40;93.00;;;;;;5029689;28;20418;-83
2022/07/27 11:48:56;;;;;;;6.00;1.67;;;22.40;92.90;;;;;;5029489;28;20453;-84
2022/07/27 11:51:23;;;;;;;5.10;1.60;;;22.50;93.40;;;;;;5030707;28;20475;-86
2022/07/27 11:53:55;;;;;;;5.73;1.60;;;;;;;;;;5025757;28;20404;-88
2022/07/27 11:56:25;;;;;;;4.13;1.50;;;;;;;;;;5021844;28;20495;-85
2022/07/27 11:58:58;;;;;;;5.18;1.38;;;;;;;;;;5018974;28;20396;-86
2022/07/27 12:01:28;;;;;;;5.22;1.63;;;;;;;;;;5018964;28;20397;-86
2022/07/27 12:04:03;;;;;;;5.63;1.40;;;;;;;;;;5018919;28;20387;-86
2022/07/27 12:06:33;;;;;;;9.00;1.90;;;;;;;;;;5020082;28;20372;-89
2022/07/27 12:09:01;;;;;;;4.47;1.43;;;;;;;;;;5017873;28;20434;-87
2022/07/27 12:11:28;;;;;;;6.20;1.55;;;;;;;;;;5015431;28;20379;-87
2022/07/27 12:13:58;;;;;;;4.43;1.60;;;;;;;;;;5017854;28;20381;-86
2022/07/27 12:16:24;;;;;;;3.90;1.35;;;;;;;;;;5024088;28;20902;-86
2022/07/27 12:18:50;;;;;;;3.90;1.30;;;;;;;;;;5030260;28;20885;-86
2022/07/27 12:21:17;;;;;;;4.18;1.27;;;;;;;;;;5042793;28;20447;-85
2022/07/27 12:23:52;;;;;;;4.65;1.55;;;;;;;;;;5043818;28;20389;-89
2022/07/27 12:26:19;;;;;;;3.95;1.48;;;;;;;;;;5035422;28;20457;-85
2022/07/27 12:28:45;;;;;;;3.88;1.27;;;;;;;;;;5047282;28;20469;-86
2022/07/27 12:31:18;;;;;;;3.97;1.35;;;;;;;;;;5034457;28;20373;-85
2022/07/27 12:33:44;;;;;;;5.07;1.33;;;;;;;;;;5043900;28;20409;-86
2022/07/27 12:36:10;;;;;;;6.97;1.83;;;;;;;;;;5035285;28;20372;-85
2022/07/27 12:38:40;;;;;;;4.20;1.50;;;;;;;;;;5029865;28;20388;-85
2022/07/27 12:41:06;;;;;;;3.42;1.30;;;;;;;;;;5027407;28;20496;-88
2022/07/27 12:43:32;;;;;;;3.03;1.20;;;;;;;;;;5026164;28;20460;-88
2022/07/27 12:45:58;;;;;;;5.27;1.57;;;;;;;;;;5017995;28;20863;-84
2022/07/27 12:48:25;;;;;;;3.05;1.30;;;;;;;;;;5018759;28;20391;-87
2022/07/27 12:51:02;;;;;;;5.20;1.75;;;;;;;;;;5015939;28;20460;-87
2022/07/27 12:53:29;;;;;;;3.17;1.50;;;;;;;;;;5017936;28;20379;-88
2022/07/27 12:55:56;;;;;;;12.68;2.78;;;;;;;;;;5019445;28;20424;-88
2022/07/27 12:58:22;;;;;;;19.63;4.05;;;;;;;;;;5021781;28;20394;-88
2022/07/27 13:00:49;;;;;;;10.35;2.83;;;;;;;;;;5022244;28;20843;-88
2022/07/27 13:03:15;;;;;;;3.07;1.20;;;;;;;;;;5022856;28;20384;-88
2022/07/27 13:05:41;;;;;;;5.60;1.80;;;;;;;;;;5028017;28;20385;-88
2022/07/27 13:08:10;;;;;;;5.20;1.40;;;;;;;;;;5022731;28;20511;-86
2022/07/27 13:10:36;;;;;;;3.70;1.48;;;;;;;;;;5024883;28;20371;-87
2022/07/27 13:13:04;;;;;;;5.75;2.00;;;;;;;;;;5029863;28;20395;-85
2022/07/27 13:15:30;;;;;;;6.18;1.48;;;;;;;;;;5042394;28;20913;-87